createdAt,value
2023-01-29T00:01:52.159Z,-0.60
2023-01-29T00:04:19.439Z,-0.60
2023-01-29T00:06:46.191Z,-0.60
2023-01-29T00:09:13.648Z,-0.60
2023-01-29T00:11:40.962Z,-0.70
2023-01-29T00:14:08.146Z,-0.70
2023-01-29T00:16:34.831Z,-0.60
2023-01-29T00:19:02.683Z,-0.60
2023-01-29T00:21:31.054Z,-0.70
2023-01-29T00:23:58.650Z,-0.60
2023-01-29T00:26:26.207Z,-0.60
2023-01-29T00:28:53.114Z,-0.70
2023-01-29T00:31:23.236Z,-0.60
2023-01-29T00:33:50.617Z,-0.70
2023-01-29T00:36:19.087Z,-0.70
2023-01-29T00:38:54.604Z,-0.80
2023-01-29T00:41:41.036Z,-0.70
2023-01-29T00:44:26.531Z,-0.70
2023-01-29T00:46:53.214Z,-0.80
2023-01-29T00:49:20.035Z,-0.70
2023-01-29T00:52:09.619Z,-0.70
2023-01-29T00:54:36.881Z,-0.70
2023-01-29T00:57:04.292Z,-0.70
2023-01-29T00:59:31.060Z,-0.80
2023-01-29T01:02:16.421Z,-0.90
2023-01-29T01:04:43.144Z,-0.90
2023-01-29T01:09:56.589Z,-1.00
2023-01-29T01:12:23.438Z,-0.90
2023-01-29T01:14:50.101Z,-1.00
2023-01-29T01:17:17.178Z,-1.00
2023-01-29T01:19:43.979Z,-0.90
2023-01-29T01:22:11.033Z,-0.90
2023-01-29T01:24:38.311Z,-0.90
2023-01-29T01:27:05.786Z,-0.90
2023-01-29T01:29:32.711Z,-0.90
2023-01-29T01:31:59.741Z,-0.90
2023-01-29T01:34:29.597Z,-0.90
2023-01-29T01:36:56.319Z,-0.80
2023-01-29T01:39:23.958Z,-0.80
2023-01-29T01:41:54.879Z,-0.80
2023-01-29T01:44:55.861Z,-0.80
2023-01-29T01:47:26.500Z,-0.90
2023-01-29T01:49:54.583Z,-0.90
2023-01-29T01:52:21.663Z,-0.90
2023-01-29T01:54:49.589Z,-0.90
2023-01-29T01:57:25.239Z,-0.90
2023-01-29T02:00:11.110Z,-0.90
2023-01-29T02:03:03.015Z,-0.90
2023-01-29T02:05:51.361Z,-0.80
2023-01-29T02:08:54.479Z,-0.80
2023-01-29T02:11:21.281Z,-0.70
2023-01-29T02:13:53.515Z,-0.80
2023-01-29T02:16:23.752Z,-0.80
2023-01-29T02:18:50.794Z,-0.80
2023-01-29T02:21:52.797Z,-0.70
2023-01-29T02:24:38.741Z,-0.70
2023-01-29T02:27:26.542Z,-0.70
2023-01-29T02:30:05.400Z,-0.60
2023-01-29T02:32:40.835Z,-0.70
2023-01-29T02:35:29.942Z,-0.70
2023-01-29T02:38:17.988Z,-0.70
2023-01-29T02:41:12.829Z,-0.70
2023-01-29T02:43:53.926Z,-0.70
2023-01-29T02:46:36.098Z,-0.70
2023-01-29T02:49:17.088Z,-0.60
2023-01-29T02:51:51.658Z,-0.70
2023-01-29T02:54:27.740Z,-0.70
2023-01-29T02:56:59.633Z,-0.70
2023-01-29T02:59:35.422Z,-0.70
2023-01-29T03:02:17.778Z,-0.70
2023-01-29T03:04:50.686Z,-0.70
2023-01-29T03:07:46.090Z,-0.70
2023-01-29T03:10:24.791Z,-0.60
2023-01-29T03:13:09.802Z,-0.70
2023-01-29T03:15:46.865Z,-0.60
2023-01-29T03:18:20.954Z,-0.70
2023-01-29T03:20:51.861Z,-0.70
2023-01-29T03:23:50.050Z,-0.60
2023-01-29T03:26:38.654Z,-0.50
2023-01-29T03:29:25.488Z,-0.50
2023-01-29T03:32:08.140Z,-0.60
2023-01-29T03:34:46.382Z,-0.50
2023-01-29T03:37:37.030Z,-0.50
2023-01-29T03:40:05.245Z,-0.50
2023-01-29T03:42:50.363Z,-0.50
2023-01-29T03:45:46.932Z,-0.50
2023-01-29T03:48:24.858Z,-0.50
2023-01-29T03:50:57.703Z,-0.60
2023-01-29T03:53:38.455Z,-0.40
2023-01-29T03:56:25.005Z,-0.50
2023-01-29T03:59:31.427Z,-0.60
2023-01-29T04:02:02.557Z,-0.50
2023-01-29T04:04:36.790Z,-0.40
2023-01-29T04:07:16.024Z,-0.50
2023-01-29T04:09:49.329Z,-0.50
2023-01-29T04:12:20.579Z,-0.40
2023-01-29T04:14:49.452Z,-0.50
2023-01-29T04:17:21.497Z,-0.40
2023-01-29T04:19:48.320Z,-0.50
2023-01-29T04:22:23.676Z,-0.50
2023-01-29T04:24:51.204Z,-0.60
2023-01-29T04:27:28.907Z,-0.60
2023-01-29T04:30:01.704Z,-0.70
2023-01-29T04:33:05.127Z,-0.60
2023-01-29T04:35:53.258Z,-0.70
2023-01-29T04:38:25.638Z,-0.70
2023-01-29T04:41:18.803Z,-0.60
2023-01-29T04:44:21.307Z,-0.70
2023-01-29T04:47:02.912Z,-0.70
2023-01-29T04:49:42.320Z,-0.80
2023-01-29T04:52:24.239Z,-0.90
2023-01-29T04:55:01.420Z,-0.80
2023-01-29T04:57:36.983Z,-0.90
2023-01-29T05:00:07.218Z,-0.90
2023-01-29T05:02:38.372Z,-0.90
2023-01-29T05:05:07.007Z,-1.00
2023-01-29T05:07:37.096Z,-1.00
2023-01-29T05:10:10.536Z,-1.00
2023-01-29T05:12:38.491Z,-1.00
2023-01-29T05:15:12.055Z,-1.00
2023-01-29T05:17:38.859Z,-1.00
2023-01-29T05:20:06.294Z,-1.00
2023-01-29T05:22:32.952Z,-1.00
2023-01-29T05:24:59.620Z,-1.10
2023-01-29T05:27:51.445Z,-1.00
2023-01-29T05:30:18.474Z,-1.00
2023-01-29T05:32:45.455Z,-0.90
2023-01-29T05:35:12.179Z,-0.90
2023-01-29T05:37:38.887Z,-0.90
2023-01-29T05:40:08.823Z,-0.90
2023-01-29T05:42:35.558Z,-0.80
2023-01-29T05:45:02.282Z,-0.90
2023-01-29T05:47:28.927Z,-0.90
2023-01-29T05:49:55.575Z,-0.80
2023-01-29T05:52:22.214Z,-0.80
2023-01-29T05:54:49.040Z,-0.90
2023-01-29T05:57:15.755Z,-0.90
2023-01-29T05:59:42.434Z,-0.90
2023-01-29T06:02:09.131Z,-0.80
2023-01-29T06:04:35.883Z,-0.80
2023-01-29T06:07:03.464Z,-0.80
2023-01-29T06:09:30.153Z,-0.80
2023-01-29T06:11:56.809Z,-0.80
2023-01-29T06:14:23.454Z,-0.80
2023-01-29T06:16:50.130Z,-0.80
2023-01-29T06:19:18.122Z,-0.80
2023-01-29T06:21:44.805Z,-0.80
2023-01-29T06:24:12.043Z,-0.80
2023-01-29T06:26:38.862Z,-0.90
2023-01-29T06:29:05.529Z,-0.90
2023-01-29T06:31:38.841Z,-0.90
2023-01-29T06:34:06.565Z,-0.90
2023-01-29T06:36:33.382Z,-0.90
2023-01-29T06:39:00.046Z,-1.00
2023-01-29T06:41:26.896Z,-1.00
2023-01-29T06:43:53.588Z,-1.10
2023-01-29T06:46:20.398Z,-1.10
2023-01-29T06:48:47.127Z,-1.00
2023-01-29T06:51:13.780Z,-0.90
2023-01-29T06:53:41.117Z,-0.80
2023-01-29T06:56:08.566Z,-0.80
2023-01-29T06:58:38.831Z,-0.80
2023-01-29T07:01:10.615Z,-0.90
2023-01-29T07:03:37.929Z,-0.90
2023-01-29T07:06:05.368Z,-0.90
2023-01-29T07:08:32.031Z,-0.80
2023-01-29T07:11:00.217Z,-0.80
2023-01-29T07:13:27.105Z,-0.70
2023-01-29T07:15:53.904Z,-0.70
2023-01-29T07:18:20.611Z,-0.70
2023-01-29T07:20:47.253Z,-0.80
2023-01-29T07:23:14.934Z,-0.70
2023-01-29T07:25:41.786Z,-0.70
2023-01-29T07:28:08.545Z,-0.70
2023-01-29T07:30:35.747Z,-0.70
2023-01-29T07:33:07.578Z,-0.50
2023-01-29T07:35:42.624Z,-0.50
2023-01-29T07:38:10.927Z,-0.50
2023-01-29T07:40:37.840Z,-0.40
2023-01-29T07:43:06.790Z,-0.40
2023-01-29T07:45:35.360Z,-0.40
2023-01-29T07:48:02.123Z,-0.40
2023-01-29T07:50:28.876Z,-0.30
2023-01-29T07:52:55.595Z,-0.30
2023-01-29T07:55:22.424Z,-0.20
2023-01-29T07:57:58.520Z,-0.20
2023-01-29T08:00:25.479Z,-0.10
2023-01-29T08:02:52.287Z,-0.20
2023-01-29T08:05:19.365Z,-0.30
2023-01-29T08:07:51.540Z,-0.40
2023-01-29T08:10:27.802Z,-0.40
2023-01-29T08:12:56.458Z,-0.30
2023-01-29T08:15:23.850Z,-0.30
2023-01-29T08:17:57.737Z,-0.30
2023-01-29T08:20:25.386Z,-0.10
2023-01-29T08:22:59.538Z,-0.10
2023-01-29T08:25:26.645Z,0.00
2023-01-29T08:27:53.645Z,-0.10
2023-01-29T08:30:20.492Z,-0.20
2023-01-29T08:32:47.387Z,-0.40
2023-01-29T08:35:14.137Z,-0.30
2023-01-29T08:37:40.813Z,-0.30
2023-01-29T08:40:09.571Z,-0.30
2023-01-29T08:42:36.428Z,-0.50
2023-01-29T08:45:03.384Z,-0.50
2023-01-29T08:47:30.025Z,-0.40
2023-01-29T08:49:56.959Z,-0.50
2023-01-29T08:52:23.943Z,-0.50
2023-01-29T08:54:50.609Z,-0.60
2023-01-29T08:57:17.307Z,-0.60
2023-01-29T08:59:44.056Z,-0.60
2023-01-29T09:02:12.087Z,-0.50
2023-01-29T09:04:38.826Z,-0.40
2023-01-29T09:07:05.491Z,-0.40
2023-01-29T09:09:32.123Z,-0.40
2023-01-29T09:11:58.910Z,-0.40
2023-01-29T09:14:25.666Z,-0.30
2023-01-29T09:16:52.350Z,-0.30
2023-01-29T09:19:19.003Z,-0.20
2023-01-29T09:21:45.754Z,-0.20
2023-01-29T09:24:12.407Z,-0.30
2023-01-29T09:26:40.222Z,-0.20
2023-01-29T09:29:08.931Z,-0.10
2023-01-29T09:31:35.693Z,0.00
2023-01-29T09:34:02.375Z,0.00
2023-01-29T09:36:29.077Z,-0.10
2023-01-29T09:38:55.960Z,-0.30
2023-01-29T09:41:33.247Z,-0.30
2023-01-29T09:44:12.032Z,-0.20
2023-01-29T09:46:48.473Z,-0.20
2023-01-29T09:49:37.791Z,-0.30
2023-01-29T09:52:10.847Z,-0.20
2023-01-29T09:55:03.312Z,-0.30
2023-01-29T09:57:47.059Z,-0.20
2023-01-29T10:00:22.357Z,0.00
2023-01-29T10:02:55.888Z,0.10
2023-01-29T10:05:32.760Z,0.00
2023-01-29T10:08:25.103Z,0.20
2023-01-29T10:11:10.909Z,0.20
2023-01-29T10:14:15.675Z,0.30
2023-01-29T10:17:11.173Z,0.20
2023-01-29T10:19:40.598Z,0.10
2023-01-29T10:22:33.642Z,0.10
2023-01-29T10:25:13.439Z,0.20
2023-01-29T10:27:44.468Z,0.10
2023-01-29T10:30:34.793Z,0.20
2023-01-29T10:33:06.613Z,0.00
2023-01-29T10:35:35.167Z,0.10
2023-01-29T10:38:24.253Z,0.00
2023-01-29T10:41:08.043Z,0.10
2023-01-29T10:44:02.782Z,0.20
2023-01-29T10:46:50.806Z,0.10
2023-01-29T10:49:49.046Z,0.20
2023-01-29T10:52:30.108Z,0.30
2023-01-29T10:55:03.970Z,0.50
2023-01-29T10:58:03.170Z,0.40
2023-01-29T11:00:38.986Z,0.30
2023-01-29T11:03:27.359Z,0.30
2023-01-29T11:06:17.894Z,0.40
2023-01-29T11:09:18.952Z,0.50
2023-01-29T11:12:11.323Z,0.70
2023-01-29T11:15:18.228Z,0.40
2023-01-29T11:18:15.744Z,0.30
2023-01-29T11:20:44.646Z,0.40
2023-01-29T11:23:28.041Z,0.50
2023-01-29T11:25:57.645Z,0.40
2023-01-29T11:28:45.478Z,0.50
2023-01-29T11:31:36.362Z,0.60
2023-01-29T11:34:03.966Z,0.60
2023-01-29T11:36:35.059Z,0.70
2023-01-29T11:39:22.092Z,0.50
2023-01-29T11:42:05.183Z,0.40
2023-01-29T11:44:33.861Z,0.40
2023-01-29T11:47:20.464Z,0.10
2023-01-29T11:49:50.497Z,0.30
2023-01-29T11:52:42.060Z,0.50
2023-01-29T11:55:22.881Z,0.60
2023-01-29T11:58:04.392Z,0.80
2023-01-29T12:00:35.778Z,0.90
2023-01-29T12:03:24.899Z,0.70
2023-01-29T12:06:14.905Z,0.70
2023-01-29T12:08:41.581Z,0.90
2023-01-29T12:11:23.873Z,1.00
2023-01-29T12:14:02.219Z,1.10
2023-01-29T12:16:36.428Z,1.10
2023-01-29T12:19:12.112Z,0.90
2023-01-29T12:21:53.816Z,0.80
2023-01-29T12:24:55.599Z,0.90
2023-01-29T12:27:29.730Z,0.80
2023-01-29T12:30:07.474Z,0.70
2023-01-29T12:33:10.654Z,0.80
2023-01-29T12:35:51.705Z,0.70
2023-01-29T12:38:20.415Z,0.80
2023-01-29T12:40:55.183Z,0.80
2023-01-29T12:43:29.891Z,0.80
2023-01-29T12:45:59.007Z,0.80
2023-01-29T12:48:31.785Z,0.90
2023-01-29T12:51:10.983Z,0.70
2023-01-29T12:53:43.629Z,0.80
2023-01-29T12:56:16.594Z,0.90
2023-01-29T12:58:50.291Z,0.70
2023-01-29T13:01:34.142Z,0.50
2023-01-29T13:04:11.639Z,0.80
2023-01-29T13:06:49.687Z,0.70
2023-01-29T13:09:21.963Z,0.70
2023-01-29T13:12:05.254Z,0.70
2023-01-29T13:14:44.647Z,0.70
2023-01-29T13:17:20.542Z,0.80
2023-01-29T13:19:51.279Z,0.80
2023-01-29T13:22:26.743Z,0.90
2023-01-29T13:25:04.319Z,1.00
2023-01-29T13:30:36.544Z,0.90
2023-01-29T13:35:59.030Z,0.70
2023-01-29T13:38:29.886Z,0.80
2023-01-29T13:41:00.376Z,0.60
2023-01-29T13:43:30.325Z,0.50
2023-01-29T13:45:57.013Z,0.60
2023-01-29T13:48:29.249Z,0.60
2023-01-29T13:51:00.129Z,0.50
2023-01-29T13:53:37.914Z,0.40
2023-01-29T13:56:35.352Z,0.40
2023-01-29T13:59:05.316Z,0.50
2023-01-29T14:01:47.034Z,0.50
2023-01-29T14:04:19.507Z,0.50
2023-01-29T14:06:51.580Z,0.50
2023-01-29T14:09:39.173Z,0.50
2023-01-29T14:12:25.788Z,0.50
2023-01-29T14:14:55.419Z,0.40
2023-01-29T14:17:22.916Z,0.40
2023-01-29T14:19:51.103Z,0.40
2023-01-29T14:22:23.826Z,0.50
2023-01-29T14:24:55.784Z,0.40
2023-01-29T14:27:27.485Z,0.20
2023-01-29T14:30:05.847Z,0.30
2023-01-29T14:32:33.308Z,0.30
2023-01-29T14:35:10.189Z,0.30
2023-01-29T14:37:40.605Z,0.30
2023-01-29T14:40:22.226Z,0.30
2023-01-29T14:43:08.753Z,0.20
2023-01-29T14:45:38.416Z,0.20
2023-01-29T14:48:11.043Z,0.20
2023-01-29T14:50:42.363Z,0.20
2023-01-29T14:53:20.646Z,0.30
2023-01-29T14:55:52.938Z,0.40
2023-01-29T14:58:44.920Z,0.40
2023-01-29T15:01:25.367Z,0.30
2023-01-29T15:03:59.826Z,0.20
2023-01-29T15:06:35.757Z,0.20
2023-01-29T15:09:17.295Z,0.20
2023-01-29T15:12:03.402Z,0.30
2023-01-29T15:14:40.644Z,0.20
2023-01-29T15:17:17.176Z,0.20
2023-01-29T15:19:48.372Z,0.10
2023-01-29T15:22:17.765Z,0.20
2023-01-29T15:24:46.715Z,0.30
2023-01-29T15:27:17.217Z,0.30
2023-01-29T15:29:51.270Z,0.30
2023-01-29T15:32:29.603Z,0.20
2023-01-29T15:34:57.650Z,0.20
2023-01-29T15:37:35.237Z,0.20
2023-01-29T15:40:03.141Z,0.20
2023-01-29T15:42:44.573Z,0.10
2023-01-29T15:45:31.553Z,0.00
2023-01-29T15:48:17.319Z,0.00
2023-01-29T15:50:45.222Z,0.00
2023-01-29T15:53:21.096Z,0.00
2023-01-29T15:55:48.279Z,0.00
2023-01-29T15:58:20.526Z,0.00
2023-01-29T16:00:55.728Z,0.00
2023-01-29T16:03:24.709Z,0.10
2023-01-29T16:05:52.791Z,-0.10
2023-01-29T16:08:21.888Z,-0.10
2023-01-29T16:10:52.675Z,-0.10
2023-01-29T16:13:23.778Z,-0.20
2023-01-29T16:16:06.969Z,0.00
2023-01-29T16:18:36.926Z,-0.10
2023-01-29T16:21:21.857Z,-0.10
2023-01-29T16:23:55.913Z,0.00
2023-01-29T16:26:28.058Z,0.00
2023-01-29T16:28:55.494Z,0.00
2023-01-29T16:31:26.251Z,0.00
2023-01-29T16:33:53.533Z,0.00
2023-01-29T16:36:23.367Z,0.00
2023-01-29T16:39:02.746Z,0.10
2023-01-29T16:41:32.171Z,0.20
2023-01-29T16:44:00.455Z,0.10
2023-01-29T16:46:36.937Z,0.10
2023-01-29T16:49:29.412Z,0.00
2023-01-29T16:51:56.600Z,0.00
2023-01-29T16:54:27.657Z,0.10
2023-01-29T16:56:59.909Z,0.10
2023-01-29T16:59:36.634Z,0.10
2023-01-29T17:02:04.315Z,0.20
2023-01-29T17:04:31.033Z,0.20
2023-01-29T17:07:00.867Z,0.10
2023-01-29T17:09:32.167Z,0.20
2023-01-29T17:12:02.685Z,0.10
2023-01-29T17:14:32.381Z,0.10
2023-01-29T17:17:14.150Z,0.10
2023-01-29T17:19:40.809Z,0.10
2023-01-29T17:22:14.575Z,0.20
2023-01-29T17:24:42.140Z,0.10
2023-01-29T17:27:18.786Z,0.10
2023-01-29T17:29:45.656Z,0.00
2023-01-29T17:32:12.742Z,0.00
2023-01-29T17:34:39.574Z,0.00
2023-01-29T17:37:06.189Z,-0.10
2023-01-29T17:39:32.820Z,-0.10
2023-01-29T17:42:01.316Z,-0.10
2023-01-29T17:44:27.984Z,-0.10
2023-01-29T17:46:54.650Z,-0.10
2023-01-29T17:49:27.501Z,0.00
2023-01-29T17:51:55.737Z,0.00
2023-01-29T17:54:23.578Z,-0.10
2023-01-29T17:56:51.686Z,0.00
2023-01-29T17:59:23.652Z,-0.10
2023-01-29T18:01:51.121Z,0.00
2023-01-29T18:04:18.180Z,-0.10
2023-01-29T18:06:47.213Z,-0.10
2023-01-29T18:09:15.726Z,0.00
2023-01-29T18:11:43.243Z,0.00
2023-01-29T18:14:14.380Z,-0.10
2023-01-29T18:16:42.325Z,0.00
2023-01-29T18:19:22.562Z,0.00
2023-01-29T18:21:50.112Z,0.00
2023-01-29T18:24:16.869Z,-0.10
2023-01-29T18:26:43.529Z,0.00
2023-01-29T18:29:10.278Z,-0.10
2023-01-29T18:31:36.945Z,-0.10
2023-01-29T18:34:03.727Z,-0.10
2023-01-29T18:36:30.483Z,-0.10
2023-01-29T18:38:58.142Z,0.00
2023-01-29T18:41:24.812Z,0.00
2023-01-29T18:43:52.724Z,0.10
2023-01-29T18:46:20.013Z,0.10
2023-01-29T18:48:46.690Z,0.10
2023-01-29T18:51:13.523Z,-0.10
2023-01-29T18:53:40.248Z,-0.20
2023-01-29T18:56:07.679Z,-0.10
2023-01-29T18:58:38.560Z,-0.20
2023-01-29T19:01:09.579Z,-0.20
2023-01-29T19:03:37.460Z,-0.20
2023-01-29T19:06:08.001Z,-0.20
2023-01-29T19:08:35.373Z,-0.10
2023-01-29T19:11:03.943Z,-0.10
2023-01-29T19:13:31.978Z,-0.10
2023-01-29T19:15:58.686Z,-0.20
2023-01-29T19:18:28.761Z,-0.10
2023-01-29T19:20:55.387Z,-0.10
2023-01-29T19:23:25.589Z,-0.20
2023-01-29T19:25:52.353Z,-0.20
2023-01-29T19:28:19.889Z,-0.20
2023-01-29T19:30:49.339Z,-0.20
2023-01-29T19:33:16.018Z,-0.20
2023-01-29T19:35:46.235Z,-0.20
2023-01-29T19:38:18.739Z,-0.30
2023-01-29T19:40:47.855Z,-0.40
2023-01-29T19:43:18.272Z,-0.30
2023-01-29T19:45:49.559Z,-0.30
2023-01-29T19:48:21.808Z,-0.30
2023-01-29T19:51:04.657Z,-0.20
2023-01-29T19:53:31.887Z,-0.20
2023-01-29T19:56:01.407Z,-0.10
2023-01-29T19:58:28.933Z,-0.10
2023-01-29T20:00:57.632Z,-0.10
2023-01-29T20:03:25.178Z,-0.40
2023-01-29T20:05:52.498Z,-0.40
2023-01-29T20:08:19.228Z,-0.60
2023-01-29T20:10:49.435Z,-0.60
2023-01-29T20:13:16.481Z,-0.50
2023-01-29T20:15:47.507Z,-0.50
2023-01-29T20:18:15.133Z,-0.60
2023-01-29T20:20:42.928Z,-0.60
2023-01-29T20:23:11.178Z,-0.70
2023-01-29T20:25:38.337Z,-0.80
2023-01-29T20:28:07.515Z,-0.80
2023-01-29T20:30:35.078Z,-0.80
2023-01-29T20:33:02.851Z,-0.80
2023-01-29T20:35:30.801Z,-0.90
2023-01-29T20:37:57.817Z,-0.90
2023-01-29T20:40:24.640Z,-0.80
2023-01-29T20:42:51.617Z,-0.90
2023-01-29T20:45:18.598Z,-0.80
2023-01-29T20:47:45.349Z,-0.80
2023-01-29T20:50:14.911Z,-0.80
2023-01-29T20:52:42.596Z,-0.80
2023-01-29T20:55:11.529Z,-0.80
2023-01-29T20:57:39.587Z,-0.80
2023-01-29T21:00:07.829Z,-0.80
2023-01-29T21:02:34.694Z,-0.80
2023-01-29T21:05:01.427Z,-0.80
2023-01-29T21:07:28.066Z,-0.80
2023-01-29T21:09:54.738Z,-0.70
2023-01-29T21:12:21.395Z,-0.80
2023-01-29T21:14:48.034Z,-0.80
2023-01-29T21:17:14.656Z,-0.80
2023-01-29T21:19:41.341Z,-0.80
2023-01-29T21:22:08.535Z,-0.70
2023-01-29T21:24:35.206Z,-0.70
2023-01-29T21:27:01.848Z,-0.70
2023-01-29T21:29:28.524Z,-0.70
2023-01-29T21:31:55.205Z,-0.80
2023-01-29T21:34:21.944Z,-0.80
2023-01-29T21:36:48.669Z,-0.90
2023-01-29T21:39:20.520Z,-1.00
2023-01-29T21:42:08.403Z,-1.00
2023-01-29T21:44:35.450Z,-1.10
2023-01-29T21:47:12.160Z,-1.10
2023-01-29T21:49:40.590Z,-1.10
2023-01-29T21:52:07.737Z,-1.10
2023-01-29T21:54:35.614Z,-1.10
2023-01-29T21:57:07.489Z,-1.20
2023-01-29T21:59:34.491Z,-1.20
2023-01-29T22:02:01.603Z,-1.20
2023-01-29T22:04:28.668Z,-1.20
2023-01-29T22:06:55.704Z,-1.10
2023-01-29T22:09:22.400Z,-1.10
2023-01-29T22:11:49.050Z,-1.20
2023-01-29T22:14:18.324Z,-1.30
2023-01-29T22:16:45.650Z,-1.30
2023-01-29T22:19:13.582Z,-1.30
2023-01-29T22:21:42.028Z,-1.40
2023-01-29T22:24:08.855Z,-1.30
2023-01-29T22:26:35.815Z,-1.40
2023-01-29T22:29:03.022Z,-1.40
2023-01-29T22:31:29.681Z,-1.40
2023-01-29T22:33:56.457Z,-1.40
2023-01-29T22:36:23.217Z,-1.40
2023-01-29T22:38:49.957Z,-1.50
2023-01-29T22:41:16.592Z,-1.50
2023-01-29T22:43:44.023Z,-1.50
2023-01-29T22:46:11.743Z,-1.50
2023-01-29T22:48:38.511Z,-1.50
2023-01-29T22:51:11.824Z,-1.50
2023-01-29T22:53:53.564Z,-1.50
2023-01-29T22:56:25.100Z,-1.50
2023-01-29T22:58:53.795Z,-1.50
2023-01-29T23:01:23.494Z,-1.60
2023-01-29T23:03:50.169Z,-1.60
2023-01-29T23:06:18.190Z,-1.60
2023-01-29T23:08:44.952Z,-1.60
2023-01-29T23:11:14.773Z,-1.60
2023-01-29T23:13:50.800Z,-1.60
2023-01-29T23:16:18.585Z,-1.70
2023-01-29T23:18:48.729Z,-1.70
2023-01-29T23:21:15.436Z,-1.60
2023-01-29T23:23:45.125Z,-1.70
2023-01-29T23:26:32.139Z,-1.70
2023-01-29T23:28:59.525Z,-1.60
2023-01-29T23:31:26.850Z,-1.70
2023-01-29T23:33:53.534Z,-1.60
2023-01-29T23:36:20.223Z,-1.70
2023-01-29T23:38:46.973Z,-1.60
2023-01-29T23:41:13.641Z,-1.70
2023-01-29T23:43:40.274Z,-1.70
2023-01-29T23:46:08.593Z,-1.70
2023-01-29T23:48:35.243Z,-1.70
2023-01-29T23:51:02.274Z,-1.60
2023-01-29T23:53:28.993Z,-1.70
2023-01-29T23:56:03.985Z,-1.60
2023-01-29T23:58:32.416Z,-1.70
